Time;durP1;ratioP1;P1;durP2;ratioP2;P2;SDS_P1;SDS_P2;PMS_P1;PMS_P2;Temp;Humidity;BMP_temperature;BMP_pressure;BME280_temperature;BME280_humidity;BME280_pressure;Samples;Min_cycle;Max_cycle;Signal;HPM_P1;HPM_P2
2021/07/13 00:01:52;;;;;;;9.05;8.15;;;19.60;81.90;;;;;;5057380;28;20029;-86
2021/07/13 00:04:18;;;;;;;10.45;9.52;;;19.50;81.90;;;;;;5057417;28;20035;-85
2021/07/13 00:06:44;;;;;;;9.65;8.85;;;19.60;82.00;;;;;;5057948;28;20031;-87
2021/07/13 00:09:09;;;;;;;10.85;9.95;;;19.60;82.00;;;;;;5057954;28;20067;-86
2021/07/13 00:11:35;;;;;;;10.23;9.32;;;19.50;82.00;;;;;;5057172;28;20026;-87
2021/07/13 00:14:01;;;;;;;10.57;9.57;;;19.60;82.00;;;;;;5056927;28;20115;-87
2021/07/13 00:16:26;;;;;;;10.73;9.82;;;19.60;82.00;;;;;;5057199;28;20024;-87
2021/07/13 00:18:52;;;;;;;10.70;9.60;;;19.60;82.00;;;;;;5057343;28;20036;-86
2021/07/13 00:21:18;;;;;;;10.77;9.88;;;19.50;82.00;;;;;;5057108;28;20027;-87
2021/07/13 00:23:44;;;;;;;11.00;10.00;;;19.60;82.00;;;;;;5056900;28;20438;-85
2021/07/13 00:26:10;;;;;;;11.05;10.05;;;19.50;82.10;;;;;;5056678;28;20395;-86
2021/07/13 00:28:36;;;;;;;12.50;10.93;;;19.50;82.10;;;;;;5056562;28;20047;-86
2021/07/13 00:31:01;;;;;;;11.38;10.38;;;19.50;82.10;;;;;;5056758;28;20024;-85
2021/07/13 00:33:27;;;;;;;11.05;10.10;;;19.50;82.20;;;;;;5056970;28;20020;-86
2021/07/13 00:35:53;;;;;;;10.57;9.70;;;19.50;82.30;;;;;;5056415;28;20036;-87
2021/07/13 00:38:18;;;;;;;11.25;10.25;;;19.50;82.30;;;;;;5056674;28;20428;-86
2021/07/13 00:40:44;;;;;;;11.02;10.13;;;19.50;82.30;;;;;;5074693;28;20020;-87
2021/07/13 00:43:10;;;;;;;11.32;10.32;;;19.50;82.30;;;;;;5056882;28;20029;-86
2021/07/13 00:45:36;;;;;;;10.43;9.52;;;19.40;82.30;;;;;;5056732;28;20039;-86
2021/07/13 00:48:03;;;;;;;10.73;9.77;;;19.50;82.30;;;;;;5056655;28;20025;-86
2021/07/13 00:50:28;;;;;;;10.45;9.55;;;19.40;82.30;;;;;;5074084;28;20055;-84
2021/07/13 00:52:58;;;;;;;12.25;11.15;;;19.40;82.30;;;;;;5056323;28;20392;-85
2021/07/13 00:55:24;;;;;;;10.02;9.23;;;19.40;82.40;;;;;;5073065;28;20507;-86
2021/07/13 00:57:51;;;;;;;10.65;9.68;;;19.40;82.50;;;;;;5074750;28;20108;-86
2021/07/13 01:00:21;;;;;;;10.20;9.32;;;19.40;82.50;;;;;;5057194;28;20110;-87
2021/07/13 01:02:49;;;;;;;11.85;10.85;;;19.40;82.60;;;;;;5056984;28;20056;-86
2021/07/13 01:05:27;;;;;;;10.63;9.63;;;19.40;82.60;;;;;;5074827;28;20107;-86
2021/07/13 01:08:16;;;;;;;10.15;9.25;;;19.50;83.20;;;;;;5057012;28;20134;-86
2021/07/13 01:10:48;;;;;;;10.10;9.20;;;19.50;82.50;;;;;;5057987;28;20033;-88
2021/07/13 01:13:26;;;;;;;9.98;8.98;;;19.60;82.40;;;;;;5060680;28;20037;-87
2021/07/13 01:15:59;;;;;;;10.23;9.32;;;19.60;82.30;;;;;;5061488;28;20033;-86
2021/07/13 01:18:27;;;;;;;;;;;19.70;82.20;;;;;;5061463;28;20024;-86
2021/07/13 01:21:24;;;;;;;9.10;8.20;;;19.70;82.00;;;;;;5059868;28;19915;-86
2021/07/13 01:24:28;;;;;;;10.35;9.38;;;19.70;82.00;;;;;;5060741;28;20067;-84
2021/07/13 01:27:11;;;;;;;9.65;8.75;;;19.70;82.00;;;;;;5060140;28;20035;-85
2021/07/13 01:29:41;;;;;;;10.60;9.60;;;19.80;82.00;;;;;;5060099;28;20068;-86
2021/07/13 01:32:08;;;;;;;10.65;9.65;;;19.80;82.00;;;;;;5060057;28;20166;-86
2021/07/13 01:34:41;;;;;;;9.35;8.55;;;19.80;82.10;;;;;;5077793;28;20068;-86
2021/07/13 01:37:09;;;;;;;10.50;9.57;;;19.70;82.20;;;;;;5059894;28;20032;-86
2021/07/13 01:39:37;;;;;;;10.43;9.52;;;19.70;82.20;;;;;;5059760;28;20078;-86
2021/07/13 01:42:06;;;;;;;10.73;9.73;;;19.70;82.40;;;;;;5077708;28;20561;-87
2021/07/13 01:44:33;;;;;;;9.35;8.55;;;19.70;82.40;;;;;;5063515;28;20039;-86
2021/07/13 01:46:59;;;;;;;9.98;9.05;;;19.70;82.50;;;;;;5080225;28;20027;-86
2021/07/13 01:49:27;;;;;;;10.48;9.48;;;19.60;82.40;;;;;;5080744;28;20024;-87
2021/07/13 01:51:55;;;;;;;10.90;9.90;;;19.70;82.50;;;;;;5079490;28;20027;-86
2021/07/13 01:54:24;;;;;;;11.32;10.23;;;19.60;82.60;;;;;;5079716;28;20032;-87
2021/07/13 01:56:55;;;;;;;9.55;8.65;;;19.60;82.70;;;;;;5097447;28;20054;-87
2021/07/13 01:59:24;;;;;;;9.95;9.05;;;19.60;82.70;;;;;;5097449;28;20024;-87
2021/07/13 02:01:56;;;;;;;9.60;8.70;;;19.70;82.80;;;;;;5079335;28;20094;-85
2021/07/13 02:04:26;;;;;;;9.50;8.68;;;19.70;82.80;;;;;;5080107;28;20032;-87
2021/07/13 02:06:52;;;;;;;9.05;8.25;;;19.70;82.80;;;;;;5079943;28;20127;-87
2021/07/13 02:09:18;;;;;;;9.60;8.70;;;19.80;82.80;;;;;;5079906;28;20039;-87
2021/07/13 02:11:44;;;;;;;9.30;8.43;;;19.80;82.70;;;;;;5079909;28;20028;-87
2021/07/13 02:14:11;;;;;;;9.68;8.73;;;19.80;82.70;;;;;;5098109;28;20492;-86
2021/07/13 02:16:37;;;;;;;9.45;8.55;;;19.80;82.70;;;;;;5080257;28;20028;-87
2021/07/13 02:19:06;;;;;;;8.98;8.07;;;19.90;82.70;;;;;;5079999;28;20490;-86
2021/07/13 02:21:32;;;;;;;9.20;8.30;;;19.90;82.60;;;;;;5097976;28;20035;-86
2021/07/13 02:23:59;;;;;;;9.27;8.48;;;19.90;82.60;;;;;;5077788;28;20121;-85
2021/07/13 02:26:32;;;;;;;9.55;8.75;;;19.90;82.60;;;;;;5078880;28;20024;-87
2021/07/13 02:29:11;;;;;;;8.60;7.85;;;20.00;82.60;;;;;;5079587;28;20036;-87
2021/07/13 02:31:44;;;;;;;9.15;8.35;;;20.00;82.60;;;;;;5079751;28;20360;-87
2021/07/13 02:34:14;;;;;;;9.90;8.20;;;20.00;82.60;;;;;;5079542;28;20043;-86
2021/07/13 02:36:49;;;;;;;8.93;8.13;;;20.00;82.60;;;;;;5079840;28;20466;-87
2021/07/13 02:39:17;;;;;;;9.82;8.90;;;20.00;82.60;;;;;;5078902;28;20020;-86
2021/07/13 02:41:45;;;;;;;9.55;8.75;;;19.90;82.60;;;;;;5078461;28;20024;-85
2021/07/13 02:44:12;;;;;;;8.85;8.05;;;20.00;82.60;;;;;;5078582;28;20028;-86
2021/07/13 02:46:43;;;;;;;9.77;8.88;;;20.00;82.60;;;;;;5096819;28;20024;-87
2021/07/13 02:49:18;;;;;;;9.65;8.75;;;19.90;82.70;;;;;;5078682;28;20032;-86
2021/07/13 02:51:45;;;;;;;9.85;8.95;;;19.90;82.70;;;;;;5096582;28;20035;-86
2021/07/13 02:54:11;;;;;;;10.15;9.25;;;19.90;82.70;;;;;;5098393;28;20024;-90
2021/07/13 02:56:40;;;;;;;9.32;8.48;;;19.90;82.70;;;;;;5082609;28;20372;-89
2021/07/13 02:59:07;;;;;;;9.65;8.80;;;19.90;82.80;;;;;;5087505;28;20095;-87
2021/07/13 03:01:34;;;;;;;9.93;8.98;;;19.90;82.80;;;;;;5086158;28;20059;-87
2021/07/13 03:04:01;;;;;;;9.52;8.63;;;19.80;82.80;;;;;;5085215;28;20097;-87
2021/07/13 03:06:27;;;;;;;9.18;8.38;;;19.90;82.90;;;;;;5082299;28;20024;-86
2021/07/13 03:08:54;;;;;;;10.63;9.73;;;19.80;82.90;;;;;;5083936;28;20047;-86
2021/07/13 03:11:20;;;;;;;9.63;8.77;;;19.80;83.00;;;;;;5082898;28;20024;-84
2021/07/13 03:13:46;;;;;;;9.70;8.80;;;19.70;83.00;;;;;;5083012;28;20369;-87
2021/07/13 03:16:12;;;;;;;10.25;9.35;;;19.70;83.00;;;;;;5098337;28;20024;-82
2021/07/13 03:18:38;;;;;;;10.05;9.13;;;19.60;83.20;;;;;;5082673;28;20093;-85
2021/07/13 03:21:04;;;;;;;9.43;8.55;;;19.60;83.30;;;;;;5080363;28;20495;-86
2021/07/13 03:23:35;;;;;;;9.98;8.63;;;19.60;83.40;;;;;;5079213;28;20059;-85
2021/07/13 03:26:02;;;;;;;9.77;8.85;;;19.60;83.40;;;;;;5077778;28;20038;-85
2021/07/13 03:28:29;;;;;;;9.70;8.80;;;19.70;83.40;;;;;;5077550;28;20044;-85
2021/07/13 03:30:56;;;;;;;10.30;9.30;;;19.70;83.40;;;;;;5079784;28;20032;-85
2021/07/13 03:33:22;;;;;;;10.45;9.38;;;19.70;83.30;;;;;;5096802;28;20032;-87
2021/07/13 03:35:49;;;;;;;10.10;9.15;;;19.80;83.30;;;;;;5077110;28;20036;-86
2021/07/13 03:38:17;;;;;;;10.52;9.43;;;19.80;83.20;;;;;;5078737;28;20020;-85
2021/07/13 03:40:45;;;;;;;10.15;9.25;;;19.80;83.20;;;;;;5077692;28;20035;-85
2021/07/13 03:43:11;;;;;;;10.45;9.40;;;19.80;83.20;;;;;;5077628;28;20491;-86
2021/07/13 03:45:37;;;;;;;10.65;9.73;;;19.80;83.20;;;;;;5078506;28;20035;-86
2021/07/13 03:48:09;;;;;;;10.40;9.40;;;19.80;83.10;;;;;;5078001;28;20024;-86
2021/07/13 03:50:36;;;;;;;10.10;9.20;;;19.90;83.20;;;;;;5077944;28;20032;-86
2021/07/13 03:53:03;;;;;;;10.18;9.27;;;19.90;83.20;;;;;;5078044;28;20510;-87
2021/07/13 03:55:29;;;;;;;10.48;9.45;;;19.90;83.20;;;;;;5095953;28;20487;-86
2021/07/13 03:57:56;;;;;;;11.07;9.98;;;19.90;83.90;;;;;;5077915;28;20115;-86
2021/07/13 04:00:27;;;;;;;10.52;9.60;;;19.90;83.30;;;;;;5077544;28;20070;-86
2021/07/13 04:02:52;;;;;;;11.07;9.93;;;19.90;83.30;;;;;;5077476;28;20387;-85
2021/07/13 04:05:18;;;;;;;10.57;9.55;;;19.90;83.20;;;;;;5078251;28;20020;-86
2021/07/13 04:07:44;;;;;;;10.93;9.93;;;19.90;83.30;;;;;;5077985;28;20032;-87
2021/07/13 04:10:12;;;;;;;10.82;9.82;;;19.90;83.20;;;;;;5077420;28;20028;-86
2021/07/13 04:12:38;;;;;;;12.07;10.98;;;20.00;83.30;;;;;;5077307;28;20024;-86
2021/07/13 04:15:06;;;;;;;12.52;11.32;;;20.00;83.30;;;;;;5077331;28;20403;-85
2021/07/13 04:17:31;;;;;;;13.35;11.98;;;20.00;83.40;;;;;;5077526;28;20426;-86
2021/07/13 04:19:57;;;;;;;13.45;12.25;;;20.00;83.50;;;;;;5077233;28;20028;-86
2021/07/13 04:22:23;;;;;;;15.27;13.77;;;20.00;83.50;;;;;;5076856;28;20024;-85
2021/07/13 04:24:48;;;;;;;14.82;13.43;;;20.00;83.50;;;;;;5094625;28;20099;-86
2021/07/13 04:27:14;;;;;;;15.90;13.60;;;20.00;83.60;;;;;;5076826;28;20020;-84
2021/07/13 04:29:40;;;;;;;15.05;13.55;;;20.00;83.70;;;;;;5076697;28;20036;-87
2021/07/13 04:32:07;;;;;;;14.77;13.38;;;20.00;83.80;;;;;;5077022;28;20038;-86
2021/07/13 04:34:34;;;;;;;16.60;15.00;;;20.00;83.90;;;;;;5076826;28;20553;-86
2021/07/13 04:37:00;;;;;;;15.75;14.15;;;20.00;84.00;;;;;;5095031;28;20032;-85
2021/07/13 04:39:26;;;;;;;15.20;13.70;;;20.00;84.10;;;;;;5076463;28;20037;-85
2021/07/13 04:41:51;;;;;;;15.65;14.05;;;20.00;84.20;;;;;;5076574;28;20024;-86
2021/07/13 04:44:17;;;;;;;16.08;14.48;;;20.00;84.30;;;;;;5094549;28;20082;-84
2021/07/13 04:46:43;;;;;;;16.08;14.48;;;20.00;84.30;;;;;;5078291;28;20032;-85
2021/07/13 04:49:12;;;;;;;15.35;13.85;;;20.00;84.30;;;;;;5080255;28;20109;-86
2021/07/13 04:51:38;;;;;;;15.43;13.82;;;19.90;84.20;;;;;;5080254;28;20028;-84
2021/07/13 04:54:04;;;;;;;18.67;16.67;;;19.90;84.30;;;;;;5079854;28;20028;-85
2021/07/13 04:56:30;;;;;;;17.25;15.50;;;19.90;84.40;;;;;;5079927;28;20024;-85
2021/07/13 04:58:56;;;;;;;16.38;14.70;;;19.80;84.50;;;;;;5098275;28;20063;-86
2021/07/13 05:01:21;;;;;;;16.73;15.02;;;19.80;84.60;;;;;;5079649;28;20031;-85
2021/07/13 05:03:47;;;;;;;17.35;15.65;;;19.80;84.70;;;;;;5097335;28;20028;-86
2021/07/13 05:06:14;;;;;;;17.48;15.57;;;19.70;84.70;;;;;;5079343;28;20020;-85
2021/07/13 05:08:40;;;;;;;18.63;16.73;;;19.70;84.80;;;;;;5079462;28;20036;-84
2021/07/13 05:11:06;;;;;;;15.73;14.10;;;19.60;84.90;;;;;;5079426;28;20020;-85
2021/07/13 05:13:33;;;;;;;16.67;14.98;;;19.60;84.90;;;;;;5079434;28;20501;-84
2021/07/13 05:15:58;;;;;;;16.20;14.50;;;19.60;85.00;;;;;;5079106;28;20097;-85
2021/07/13 05:18:24;;;;;;;15.15;13.55;;;19.50;85.00;;;;;;5097337;28;20036;-83
2021/07/13 05:20:55;;;;;;;16.83;15.02;;;19.50;85.00;;;;;;5079926;28;20464;-85
2021/07/13 05:23:21;;;;;;;14.93;13.43;;;19.50;85.10;;;;;;5097708;28;20024;-85
2021/07/13 05:25:46;;;;;;;18.42;16.55;;;19.50;85.20;;;;;;5079775;28;20028;-85
2021/07/13 05:28:12;;;;;;;16.73;15.02;;;19.50;85.20;;;;;;5079183;28;20097;-85
2021/07/13 05:30:40;;;;;;;17.00;15.20;;;19.50;85.20;;;;;;5079658;28;20017;-85
2021/07/13 05:33:06;;;;;;;17.42;15.63;;;19.40;85.30;;;;;;5079337;28;20016;-85
2021/07/13 05:35:32;;;;;;;18.27;15.57;;;19.40;85.40;;;;;;5079203;28;20051;-84
2021/07/13 05:37:58;;;;;;;19.92;15.63;;;19.40;85.40;;;;;;5079060;28;20027;-85
2021/07/13 05:40:24;;;;;;;20.50;15.52;;;19.30;85.40;;;;;;5078687;28;20016;-84
2021/07/13 05:42:50;;;;;;;18.23;16.15;;;19.30;85.50;;;;;;5078888;28;20027;-86
2021/07/13 05:45:16;;;;;;;18.55;15.82;;;19.30;85.50;;;;;;5078887;28;20032;-86
2021/07/13 05:47:41;;;;;;;18.98;15.52;;;19.30;85.60;;;;;;5078932;28;20020;-85
2021/07/13 05:50:09;;;;;;;19.83;17.35;;;19.30;85.70;;;;;;5097110;28;20056;-86
2021/07/13 05:52:35;;;;;;;23.95;18.35;;;19.30;85.80;;;;;;5078931;28;20484;-85
2021/07/13 05:55:02;;;;;;;19.42;16.52;;;19.30;85.80;;;;;;5078739;28;20028;-86
2021/07/13 05:57:27;;;;;;;20.27;16.92;;;19.30;85.90;;;;;;5077913;28;20028;-85
2021/07/13 05:59:53;;;;;;;25.58;19.25;;;19.30;85.90;;;;;;5078762;28;20017;-83
2021/07/13 06:02:19;;;;;;;22.95;18.63;;;19.40;85.90;;;;;;5078441;28;20020;-85
2021/07/13 06:04:45;;;;;;;22.98;18.38;;;19.40;85.90;;;;;;5078516;28;20062;-85
2021/07/13 06:07:13;;;;;;;21.98;17.35;;;19.40;86.00;;;;;;5078904;28;20056;-86
2021/07/13 06:09:39;;;;;;;20.67;17.33;;;19.40;86.00;;;;;;5078004;28;20091;-85
2021/07/13 06:12:05;;;;;;;24.63;18.67;;;19.50;86.10;;;;;;5078333;28;20055;-85
2021/07/13 06:14:31;;;;;;;21.65;17.70;;;19.50;86.00;;;;;;5078590;28;20024;-85
2021/07/13 06:16:56;;;;;;;20.70;16.77;;;19.50;86.10;;;;;;5078699;28;20099;-86
2021/07/13 06:19:22;;;;;;;20.77;16.80;;;19.60;86.10;;;;;;5078813;28;20116;-84
2021/07/13 06:21:51;;;;;;;20.50;17.15;;;19.70;86.00;;;;;;5096479;28;20020;-85
2021/07/13 06:24:17;;;;;;;21.45;16.98;;;19.80;85.90;;;;;;5078108;28;20044;-85
2021/07/13 06:26:42;;;;;;;20.52;17.27;;;19.80;85.70;;;;;;5095919;28;20024;-85
2021/07/13 06:29:08;;;;;;;22.75;18.58;;;19.90;85.70;;;;;;5077593;28;20440;-84
2021/07/13 06:31:34;;;;;;;20.48;16.70;;;19.90;85.60;;;;;;5077812;28;20357;-84
2021/07/13 06:33:59;;;;;;;20.58;17.08;;;20.00;85.60;;;;;;5077244;28;20434;-83
2021/07/13 06:36:25;;;;;;;20.20;16.23;;;20.00;85.60;;;;;;5077141;28;20452;-85
2021/07/13 06:38:51;;;;;;;20.52;17.02;;;20.10;85.60;;;;;;5076898;28;20046;-84
2021/07/13 06:41:24;;;;;;;20.88;16.75;;;20.10;85.50;;;;;;5076991;28;20012;-84
2021/07/13 06:43:49;;;;;;;;;;;20.10;85.50;;;;;;5077192;28;20028;-84
2021/07/13 06:46:15;;;;;;;21.10;16.42;;;20.10;85.40;;;;;;5076707;28;19994;-83
2021/07/13 06:48:41;;;;;;;20.88;16.80;;;20.10;85.40;;;;;;5094887;28;20031;-84
2021/07/13 06:51:53;;;;;;;18.63;15.82;;;20.10;85.50;;;;;;5076683;28;20020;-83
2021/07/13 06:54:19;;;;;;;20.73;16.98;;;20.10;85.50;;;;;;5076249;28;20032;-84
2021/07/13 06:56:45;;;;;;;20.90;16.27;;;20.10;85.50;;;;;;5077034;28;20103;-84
2021/07/13 06:59:12;;;;;;;19.25;15.38;;;20.20;85.60;;;;;;5077649;28;20353;-85
2021/07/13 07:01:37;;;;;;;19.45;16.02;;;20.20;85.50;;;;;;5077307;28;20023;-85
2021/07/13 07:04:03;;;;;;;19.75;15.88;;;20.20;85.50;;;;;;5077678;28;20020;-85
2021/07/13 07:06:29;;;;;;;20.85;16.67;;;20.20;86.20;;;;;;5078879;28;20020;-85
2021/07/13 07:08:56;;;;;;;21.90;17.33;;;20.30;85.60;;;;;;5077826;28;20525;-85
2021/07/13 07:11:21;;;;;;;20.50;16.70;;;20.30;85.60;;;;;;5077513;28;20173;-85
2021/07/13 07:13:47;;;;;;;22.00;16.98;;;20.40;85.60;;;;;;5077433;28;20062;-86
2021/07/13 07:16:13;;;;;;;19.95;16.48;;;20.40;85.60;;;;;;5077494;28;20024;-86
2021/07/13 07:18:38;;;;;;;17.83;15.38;;;20.40;85.50;;;;;;5077741;28;20020;-86
2021/07/13 07:21:04;;;;;;;17.42;14.93;;;20.50;85.50;;;;;;5078056;28;20046;-87
2021/07/13 07:23:30;;;;;;;15.27;13.20;;;20.50;86.00;;;;;;5079055;28;20453;-86
2021/07/13 07:25:56;;;;;;;18.02;15.32;;;20.50;85.40;;;;;;5078105;28;20051;-78
2021/07/13 07:28:22;;;;;;;17.35;14.93;;;20.50;85.40;;;;;;5093650;28;20118;-76
2021/07/13 07:30:47;;;;;;;16.95;13.90;;;20.50;85.40;;;;;;5075664;28;20510;-74
2021/07/13 07:33:13;;;;;;;17.42;15.27;;;20.50;85.50;;;;;;5093810;28;20031;-73
2021/07/13 07:35:39;;;;;;;18.42;15.45;;;20.60;85.70;;;;;;5093704;28;20671;-73
2021/07/13 07:38:05;;;;;;;17.98;14.48;;;20.60;85.60;;;;;;5075482;28;20020;-73
2021/07/13 07:40:30;;;;;;;14.40;12.75;;;20.60;85.70;;;;;;5093861;28;20023;-73
2021/07/13 07:42:58;;;;;;;14.73;12.63;;;20.60;85.80;;;;;;5075349;28;20024;-74
2021/07/13 07:45:25;;;;;;;15.07;13.48;;;20.60;85.80;;;;;;5075295;28;20028;-73
2021/07/13 07:47:52;;;;;;;15.55;13.52;;;20.60;85.80;;;;;;5093452;28;20361;-73
2021/07/13 07:50:18;;;;;;;15.43;13.35;;;20.60;85.80;;;;;;5093383;28;20499;-73
2021/07/13 07:52:44;;;;;;;14.68;13.07;;;20.60;85.90;;;;;;5093366;28;20055;-73
2021/07/13 07:55:12;;;;;;;13.25;11.82;;;20.60;85.90;;;;;;5093237;28;20065;-73
2021/07/13 07:57:38;;;;;;;12.65;10.70;;;20.70;85.90;;;;;;5075298;28;20062;-74
2021/07/13 08:00:11;;;;;;;13.55;11.32;;;20.70;85.90;;;;;;5075250;28;20012;-73
2021/07/13 08:02:36;;;;;;;13.60;11.88;;;20.70;85.90;;;;;;5074968;28;20016;-73
2021/07/13 08:05:03;;;;;;;12.55;11.23;;;20.70;85.90;;;;;;5075088;28;20110;-74
2021/07/13 08:07:28;;;;;;;12.60;11.32;;;20.80;86.50;;;;;;5075106;28;20030;-74
2021/07/13 08:09:54;;;;;;;12.80;11.23;;;20.80;85.90;;;;;;5093140;28;20480;-75
2021/07/13 08:12:20;;;;;;;13.23;11.82;;;20.80;85.90;;;;;;5093138;28;20024;-73
2021/07/13 08:14:45;;;;;;;11.85;10.55;;;20.80;86.00;;;;;;5074977;28;20030;-73
2021/07/13 08:17:11;;;;;;;11.63;10.43;;;20.80;86.00;;;;;;5075026;28;20047;-72
2021/07/13 08:19:39;;;;;;;12.23;10.80;;;20.80;86.10;;;;;;5093145;28;20020;-72
2021/07/13 08:22:07;;;;;;;11.35;10.20;;;20.80;86.10;;;;;;5098384;28;20073;-73
2021/07/13 08:24:32;;;;;;;12.43;10.30;;;20.80;86.20;;;;;;5081818;28;20035;-73
2021/07/13 08:26:58;;;;;;;13.02;10.40;;;20.80;86.20;;;;;;5081265;28;20476;-73
2021/07/13 08:29:24;;;;;;;11.05;9.95;;;20.90;86.30;;;;;;5077844;28;20105;-73
2021/07/13 08:31:55;;;;;;;10.98;9.80;;;20.90;86.30;;;;;;5079461;28;20032;-73
2021/07/13 08:34:20;;;;;;;9.98;9.05;;;21.00;86.20;;;;;;5077994;28;20470;-73
2021/07/13 08:36:46;;;;;;;11.50;10.30;;;20.90;86.10;;;;;;5079450;28;20104;-74
2021/07/13 08:39:11;;;;;;;12.48;11.18;;;21.00;86.30;;;;;;5078041;28;20112;-72
2021/07/13 08:41:37;;;;;;;11.43;10.20;;;21.00;86.30;;;;;;5079359;28;20024;-71
2021/07/13 08:44:05;;;;;;;11.38;10.18;;;21.00;86.30;;;;;;5077993;28;20547;-72
2021/07/13 08:46:37;;;;;;;11.40;10.07;;;21.10;86.20;;;;;;5078265;28;20025;-74
2021/07/13 08:49:04;;;;;;;10.85;9.75;;;21.20;86.30;;;;;;5061326;28;20495;-73
2021/07/13 08:51:29;;;;;;;10.02;9.10;;;21.30;86.10;;;;;;5079148;28;20029;-72
2021/07/13 08:53:55;;;;;;;9.50;8.60;;;21.30;85.90;;;;;;5061082;28;20048;-72
2021/07/13 08:56:20;;;;;;;12.30;11.10;;;21.40;86.60;;;;;;5079238;28;20098;-73
2021/07/13 08:58:46;;;;;;;9.38;8.48;;;21.50;85.90;;;;;;5061432;28;20032;-73
2021/07/13 09:01:12;;;;;;;10.13;9.13;;;21.60;85.70;;;;;;5061255;28;20032;-73
2021/07/13 09:03:58;;;;;;;10.13;9.10;;;21.70;85.60;;;;;;5079207;28;20028;-73
2021/07/13 09:06:25;;;;;;;10.05;9.10;;;21.70;85.50;;;;;;5061346;28;20025;-74
2021/07/13 09:08:52;;;;;;;9.30;8.40;;;21.80;85.40;;;;;;5079152;28;20028;-73
2021/07/13 09:11:22;;;;;;;8.40;7.50;;;21.80;85.30;;;;;;5061393;28;20124;-73
2021/07/13 09:13:49;;;;;;;8.35;7.57;;;21.90;85.20;;;;;;5079068;28;20028;-73
2021/07/13 09:16:18;;;;;;;8.35;7.55;;;22.10;85.10;;;;;;5061219;28;20055;-73
2021/07/13 09:18:53;;;;;;;7.85;7.15;;;22.20;84.80;;;;;;5060959;28;20024;-74
2021/07/13 09:21:22;;;;;;;8.73;7.93;;;22.30;84.60;;;;;;5060565;28;20033;-75
2021/07/13 09:24:06;;;;;;;9.13;8.32;;;22.40;84.40;;;;;;5061046;28;20392;-73
2021/07/13 09:26:51;;;;;;;8.07;7.38;;;22.50;84.20;;;;;;5060993;28;20119;-72
2021/07/13 09:29:33;;;;;;;9.55;8.65;;;22.60;84.00;;;;;;5078710;28;20056;-73
2021/07/13 09:32:31;;;;;;;9.25;8.35;;;22.60;83.80;;;;;;5077796;28;20176;-73
2021/07/13 09:34:58;;;;;;;8.77;8.00;;;22.60;83.80;;;;;;5058038;28;20033;-73
2021/07/13 09:37:28;;;;;;;8.90;8.00;;;22.60;83.70;;;;;;5075549;28;20427;-73
2021/07/13 09:39:59;;;;;;;8.38;7.57;;;22.70;83.60;;;;;;5075621;28;20029;-73
2021/07/13 09:42:26;;;;;;;8.23;7.43;;;22.70;83.40;;;;;;5057471;28;20055;-73
2021/07/13 09:44:52;;;;;;;8.18;7.35;;;22.70;83.30;;;;;;5057558;28;20107;-74
2021/07/13 09:47:31;;;;;;;9.02;8.15;;;22.70;83.30;;;;;;5057974;28;20040;-74
2021/07/13 09:50:00;;;;;;;9.10;8.30;;;22.70;83.10;;;;;;5075490;28;20029;-76
2021/07/13 09:52:26;;;;;;;9.20;8.30;;;22.70;83.10;;;;;;5057430;28;20032;-75
2021/07/13 09:54:52;;;;;;;9.60;8.60;;;22.70;83.00;;;;;;5057292;28;20021;-75
2021/07/13 09:57:20;;;;;;;9.57;8.68;;;22.60;83.10;;;;;;5057295;28;20116;-75
2021/07/13 09:59:51;;;;;;;9.50;8.50;;;22.60;83.20;;;;;;5057134;28;20025;-75
2021/07/13 10:02:20;;;;;;;8.82;8.02;;;22.50;83.10;;;;;;5058675;28;20032;-75
2021/07/13 10:04:47;;;;;;;8.57;7.78;;;22.60;83.10;;;;;;5057155;28;20111;-76
2021/07/13 10:07:15;;;;;;;8.63;7.82;;;22.70;83.20;;;;;;5075195;28;20103;-73
2021/07/13 10:09:46;;;;;;;9.20;8.32;;;22.80;82.90;;;;;;5075207;28;20078;-75
2021/07/13 10:12:15;;;;;;;8.93;8.13;;;23.00;82.70;;;;;;5074904;28;20033;-75
2021/07/13 10:14:43;;;;;;;8.88;8.07;;;23.00;82.40;;;;;;5056905;28;20032;-74
2021/07/13 10:17:09;;;;;;;8.63;7.72;;;23.10;82.30;;;;;;5056830;28;20119;-75
2021/07/13 10:19:39;;;;;;;8.63;7.85;;;23.10;82.10;;;;;;5056731;28;20388;-75
2021/07/13 10:22:06;;;;;;;8.73;7.88;;;23.10;82.00;;;;;;5056566;28;20017;-75
2021/07/13 10:24:33;;;;;;;8.40;7.63;;;23.00;81.90;;;;;;5056552;28;20095;-76
2021/07/13 10:26:59;;;;;;;9.20;8.30;;;23.00;81.90;;;;;;5056629;28;20074;-75
2021/07/13 10:29:34;;;;;;;8.35;7.57;;;23.00;81.90;;;;;;5052753;28;20045;-75
2021/07/13 10:32:01;;;;;;;8.05;7.25;;;23.00;82.00;;;;;;5053279;28;20037;-76
2021/07/13 10:34:46;;;;;;;8.73;7.93;;;23.00;81.80;;;;;;5056382;28;20043;-75
2021/07/13 10:37:29;;;;;;;8.05;7.28;;;22.90;81.80;;;;;;5074395;28;20043;-78
2021/07/13 10:40:05;;;;;;;;;;;22.80;81.90;;;;;;5056861;28;20027;-76
2021/07/13 10:42:43;;;;;;;9.05;8.15;;;22.70;82.00;;;;;;5056490;28;19915;-77
2021/07/13 10:45:23;;;;;;;9.15;8.32;;;22.70;82.00;;;;;;5055963;28;20040;-75
2021/07/13 10:48:03;;;;;;;9.05;8.25;;;22.60;82.10;;;;;;5056492;28;20038;-74
2021/07/13 10:50:29;;;;;;;9.07;8.18;;;22.60;82.30;;;;;;5074426;28;20036;-76
2021/07/13 10:52:57;;;;;;;8.30;7.50;;;22.60;82.30;;;;;;5074209;28;20033;-75
2021/07/13 10:55:31;;;;;;;9.02;8.20;;;22.60;82.30;;;;;;5056094;28;20033;-75
2021/07/13 10:58:09;;;;;;;8.73;7.93;;;22.70;82.00;;;;;;5055991;28;20037;-73
2021/07/13 11:00:50;;;;;;;8.75;7.85;;;22.80;81.70;;;;;;5073961;28;20024;-74
2021/07/13 11:06:53;;;;;;;8.35;7.55;;;22.80;81.60;;;;;;5074262;28;20039;-74
2021/07/13 11:09:25;;;;;;;8.48;7.68;;;22.80;81.50;;;;;;5055937;28;20115;-73
2021/07/13 11:11:52;;;;;;;9.35;8.45;;;23.00;81.50;;;;;;5055676;28;20064;-74
2021/07/13 11:14:18;;;;;;;8.55;7.75;;;23.00;81.30;;;;;;5055853;28;20458;-74
2021/07/13 11:16:49;;;;;;;9.85;8.85;;;23.10;81.30;;;;;;5055691;28;20115;-76
2021/07/13 11:19:15;;;;;;;9.98;8.98;;;23.10;81.10;;;;;;5055856;28;20025;-75
2021/07/13 11:21:50;;;;;;;9.52;8.50;;;23.10;81.10;;;;;;5073637;28;20027;-74
2021/07/13 11:24:22;;;;;;;9.82;8.93;;;23.00;81.20;;;;;;5073606;28;20029;-77
2021/07/13 11:26:50;;;;;;;9.30;8.40;;;23.00;81.30;;;;;;5055495;28;20024;-76
2021/07/13 11:29:23;;;;;;;9.23;8.32;;;23.00;81.30;;;;;;5055455;28;20488;-75
2021/07/13 11:31:52;;;;;;;10.80;9.68;;;22.90;81.20;;;;;;5055559;28;20163;-75
2021/07/13 11:34:21;;;;;;;11.45;10.35;;;22.90;81.30;;;;;;5055351;28;20020;-76
2021/07/13 11:36:51;;;;;;;11.20;10.05;;;22.80;81.20;;;;;;5073282;28;20104;-75
2021/07/13 11:39:32;;;;;;;10.35;9.35;;;22.80;81.20;;;;;;5073299;28;20384;-74
2021/07/13 11:42:06;;;;;;;11.10;10.00;;;22.90;81.00;;;;;;5055270;28;20028;-73
2021/07/13 11:44:34;;;;;;;11.00;9.90;;;22.90;80.90;;;;;;5055295;28;20476;-73
2021/07/13 11:47:00;;;;;;;10.77;9.68;;;23.00;80.90;;;;;;5073130;28;20024;-73
2021/07/13 11:49:32;;;;;;;9.98;9.00;;;23.00;80.70;;;;;;5055175;28;20039;-74
2021/07/13 11:52:04;;;;;;;9.53;8.57;;;23.10;80.70;;;;;;5073162;28;20072;-74
2021/07/13 11:54:32;;;;;;;10.48;9.25;;;23.10;80.60;;;;;;5073031;28;20282;-73
2021/07/13 11:57:01;;;;;;;9.75;8.85;;;23.20;80.60;;;;;;5054366;28;20020;-74
2021/07/13 11:59:29;;;;;;;11.57;10.45;;;23.20;80.40;;;;;;5073073;28;20115;-74
2021/07/13 12:02:00;;;;;;;10.98;9.85;;;23.20;80.30;;;;;;5072945;28;20031;-74
2021/07/13 12:04:29;;;;;;;10.88;9.77;;;23.20;80.30;;;;;;5054997;28;20162;-78
2021/07/13 12:06:57;;;;;;;10.13;9.18;;;23.20;80.40;;;;;;5054932;28;20492;-74
2021/07/13 12:09:29;;;;;;;9.77;8.93;;;23.20;80.40;;;;;;5054882;28;20043;-73
2021/07/13 12:12:03;;;;;;;11.82;10.63;;;23.30;80.20;;;;;;5072905;28;20059;-73
2021/07/13 12:14:29;;;;;;;11.05;9.95;;;23.40;80.00;;;;;;5072783;28;20051;-74
2021/07/13 12:16:57;;;;;;;9.75;8.85;;;23.40;80.00;;;;;;5072777;28;20028;-74
2021/07/13 12:19:24;;;;;;;10.15;9.20;;;23.40;79.90;;;;;;5054687;28;20119;-74
2021/07/13 12:22:03;;;;;;;10.13;9.13;;;23.50;79.80;;;;;;5054814;28;20028;-73
2021/07/13 12:24:34;;;;;;;10.15;9.15;;;23.50;79.50;;;;;;5054763;28;20047;-73
2021/07/13 12:27:01;;;;;;;10.63;9.63;;;23.60;79.30;;;;;;5072778;28;20040;-74
2021/07/13 12:29:38;;;;;;;10.80;9.80;;;23.60;79.20;;;;;;5051617;28;20056;-73
2021/07/13 12:32:06;;;;;;;10.57;9.60;;;23.50;78.90;;;;;;5072829;28;20020;-74
2021/07/13 12:34:41;;;;;;;10.00;9.10;;;23.50;79.10;;;;;;5054711;28;20414;-73
2021/07/13 12:37:13;;;;;;;10.82;9.80;;;23.50;79.20;;;;;;5054729;28;20020;-73
2021/07/13 12:39:41;;;;;;;10.20;9.20;;;23.50;79.10;;;;;;5072584;28;20059;-73
2021/07/13 12:42:10;;;;;;;11.55;10.45;;;23.50;79.20;;;;;;5072900;28;20028;-73
2021/07/13 12:44:36;;;;;;;11.07;9.88;;;23.40;79.20;;;;;;5054442;28;20029;-74
2021/07/13 12:47:14;;;;;;;12.20;11.00;;;23.40;79.40;;;;;;5072658;28;20033;-73